Time;durP1;ratioP1;P1;durP2;ratioP2;P2;SDS_P1;SDS_P2;PMS_P1;PMS_P2;Temp;Humidity;BMP_temperature;BMP_pressure;BME280_temperature;BME280_humidity;BME280_pressure;Samples;Min_cycle;Max_cycle;Signal;HPM_P1;HPM_P2
2021/11/01 00:01:54;;;;;;;;;;;205.20;2252.80;;;;;;5117105;27;19903;-74
2021/11/01 00:04:20;;;;;;;;;;;205.20;2252.80;;;;;;5135444;27;19903;-74
2021/11/01 00:06:46;;;;;;;;;;;205.40;2252.80;;;;;;5135243;27;19903;-76
2021/11/01 00:09:11;;;;;;;;;;;205.30;2252.80;;;;;;5135129;27;19912;-76
2021/11/01 00:11:37;;;;;;;;;;;205.30;2252.80;;;;;;5134696;27;19915;-76
2021/11/01 00:14:03;;;;;;;;;;;205.40;2252.80;;;;;;5134955;27;19992;-74
2021/11/01 00:16:29;;;;;;;;;;;205.20;2252.80;;;;;;5127300;27;19914;-76
2021/11/01 00:18:55;;;;;;;;;;;205.10;2252.80;;;;;;5132094;27;19994;-75
2021/11/01 00:21:21;;;;;;;;;;;205.30;2252.80;;;;;;5127715;27;19903;-75
2021/11/01 00:23:47;;;;;;;;;;;204.90;2252.80;;;;;;5129730;27;19904;-75
2021/11/01 00:26:13;;;;;;;;;;;180.10;2252.80;;;;;;5130065;27;19919;-74
2021/11/01 00:28:38;;;;;;;;;;;179.80;2252.80;;;;;;5117038;27;20323;-75
2021/11/01 00:31:04;;;;;;;;;;;179.80;2252.80;;;;;;5129689;27;19912;-74
2021/11/01 00:33:30;;;;;;;;;;;179.80;2252.80;;;;;;5114193;27;20380;-74
2021/11/01 00:35:56;;;;;;;;;;;179.80;2252.80;;;;;;5132241;27;19904;-75
2021/11/01 00:38:21;;;;;;;;;;;179.70;2252.80;;;;;;5128397;27;19907;-74
2021/11/01 00:40:48;;;;;;;;;;;179.70;2252.80;;;;;;5127693;27;20280;-77
2021/11/01 00:43:14;;;;;;;;;;;179.80;2252.80;;;;;;5126630;27;19992;-74
2021/11/01 00:45:39;;;;;;;;;;;180.00;2252.80;;;;;;5127052;27;19939;-74
2021/11/01 00:48:05;;;;;;;;;;;180.00;2252.80;;;;;;5120729;27;19911;-74
2021/11/01 00:50:31;;;;;;;;;;;180.00;2252.80;;;;;;5131657;27;19924;-74
2021/11/01 00:52:58;;;;;;;;;;;180.00;2252.80;;;;;;5134618;27;19960;-75
2021/11/01 00:55:25;;;;;;;;;;;179.90;2252.80;;;;;;5130166;27;20588;-74
2021/11/01 00:57:51;;;;;;;;;;;179.80;2252.80;;;;;;5105016;27;20408;-74
2021/11/01 01:00:17;;;;;;;;;;;179.90;2252.80;;;;;;5116173;27;19907;-77
2021/11/01 01:02:43;;;;;;;;;;;179.80;2252.80;;;;;;5134690;27;19904;-74
2021/11/01 01:05:09;;;;;;;;;;;179.90;2252.80;;;;;;5134370;27;20267;-74
2021/11/01 01:07:34;;;;;;;;;;;179.90;2252.80;;;;;;5116001;27;19911;-74
2021/11/01 01:10:00;;;;;;;;;;;180.00;2252.80;;;;;;5134364;27;20013;-75
2021/11/01 01:12:26;;;;;;;;;;;180.10;2252.80;;;;;;5133948;27;19915;-75
2021/11/01 01:14:59;;;;;;;;;;;204.80;2252.80;;;;;;5115909;27;19908;-77
2021/11/01 01:17:26;;;;;;;;;;;204.80;2252.80;;;;;;5114012;27;19907;-75
2021/11/01 01:20:14;;;;;;;;;;;204.90;2252.80;;;;;;5134262;27;19904;-75
2021/11/01 01:22:39;;;;;;;;;;;205.00;2252.80;;;;;;5133417;27;19910;-76
2021/11/01 01:25:29;;;;;;;;;;;205.10;2252.80;;;;;;5134349;27;20061;-76
2021/11/01 01:27:55;;;;;;;;;;;204.90;2252.80;;;;;;5115166;27;19961;-75
2021/11/01 01:30:22;;;;;;;;;;;205.00;2252.80;;;;;;5126443;27;19912;-78
2021/11/01 01:32:47;;;;;;;;;;;204.80;2252.80;;;;;;5115798;28;19974;-75
2021/11/01 01:35:14;;;;;;;;;;;180.10;2252.80;;;;;;5129292;27;19994;-77
2021/11/01 01:37:40;;;;;;;;;;;180.00;2252.80;;;;;;5126255;27;20090;-76
2021/11/01 01:40:06;;;;;;;;;;;180.00;2252.80;;;;;;5127888;27;19949;-75
2021/11/01 01:42:33;;;;;;;;;;;180.10;2252.80;;;;;;5128675;27;19907;-77
2021/11/01 01:44:58;;;;;;;;;;;180.00;2252.80;;;;;;5115579;28;19944;-77
2021/11/01 01:47:24;;;;;;;;;;;179.80;2252.80;;;;;;5128248;28;19904;-77
2021/11/01 01:49:50;;;;;;;;;;;179.70;2252.80;;;;;;5110283;28;19946;-77
2021/11/01 01:52:16;;;;;;;;;;;179.70;2252.80;;;;;;5108982;27;20570;-78
2021/11/01 01:54:42;;;;;;;;;;;179.60;2252.80;;;;;;5135383;27;19903;-76
2021/11/01 01:57:08;;;;;;;;;;;179.60;2252.80;;;;;;5118267;27;19906;-76
2021/11/01 01:59:34;;;;;;;;;;;179.50;2252.80;;;;;;5137904;27;19903;-76
2021/11/01 02:01:59;;;;;;;;;;;179.50;2252.80;;;;;;5137858;27;20314;-76
2021/11/01 02:04:26;;;;;;;;;;;179.50;2252.80;;;;;;5138024;27;19955;-77
2021/11/01 02:07:13;;;;;;;;;;;179.50;2252.80;;;;;;5138041;27;19903;-77
2021/11/01 02:09:49;;;;;;;;;;;179.60;2252.80;;;;;;5137449;27;19968;-76
2021/11/01 02:12:44;;;;;;;;;;;179.60;2252.80;;;;;;5137682;27;20041;-77
2021/11/01 02:15:18;;;;;;;;;;;179.60;2252.80;;;;;;5054348;28;19951;-76
2021/11/01 02:17:46;;;;;;;;;;;179.60;2252.80;;;;;;5054601;28;19904;-76
2021/11/01 02:20:14;;;;;;;;;;;179.60;2252.80;;;;;;5054449;28;19921;-75
2021/11/01 02:22:42;;;;;;;;;;;179.70;2252.80;;;;;;5037795;28;19918;-77
2021/11/01 02:25:10;;;;;;;;;;;179.70;2252.80;;;;;;5037625;28;20225;-76
2021/11/01 02:27:38;;;;;;;;;;;179.70;2252.80;;;;;;5054360;28;20396;-77
2021/11/01 02:30:05;;;;;;;;;;;179.70;2252.80;;;;;;5054405;28;19913;-77
2021/11/01 02:32:31;;;;;;;;;;;179.80;2252.80;;;;;;5037596;28;20493;-77
2021/11/01 02:34:56;;;;;;;;;;;179.80;2252.80;;;;;;5054460;28;19905;-77
2021/11/01 02:37:22;;;;;;;;;;;179.80;2252.80;;;;;;5037643;28;20306;-76
2021/11/01 02:39:48;;;;;;;;;;;179.80;2252.80;;;;;;5054033;28;20385;-77
2021/11/01 02:42:15;;;;;;;;;;;179.90;2252.80;;;;;;5054024;28;19915;-77
2021/11/01 02:44:54;;;;;;;;;;;179.90;2252.80;;;;;;5054019;28;20317;-76
2021/11/01 02:47:20;;;;;;;;;;;179.80;2252.80;;;;;;5053907;28;20007;-76
2021/11/01 02:49:46;;;;;;;;;;;179.80;2252.80;;;;;;5053949;28;19996;-76
2021/11/01 02:52:12;;;;;;;;;;;179.80;2252.80;;;;;;5118457;27;19990;-77
2021/11/01 02:54:38;;;;;;;;;;;179.80;2252.80;;;;;;5118199;27;20346;-77
2021/11/01 02:57:04;;;;;;;;;;;179.70;2252.80;;;;;;5118476;27;19903;-77
2021/11/01 02:59:29;;;;;;;;;;;179.60;2252.80;;;;;;5115288;28;19907;-76
2021/11/01 03:01:58;;;;;;;;;;;179.70;2252.80;;;;;;5130959;27;19904;-76
2021/11/01 03:04:24;;;;;;;;;;;179.70;2252.80;;;;;;5133824;27;19911;-76
2021/11/01 03:06:50;;;;;;;;;;;179.70;2252.80;;;;;;5105898;27;19912;-77
2021/11/01 03:09:16;;;;;;;;;;;179.60;2252.80;;;;;;5113589;27;19907;-77
2021/11/01 03:11:41;;;;;;;;;;;179.60;2252.80;;;;;;5118074;27;19923;-77
2021/11/01 03:14:07;;;;;;;;;;;179.70;2252.80;;;;;;5136890;27;19907;-77
2021/11/01 03:16:33;;;;;;;;;;;179.70;2252.80;;;;;;5136756;27;19957;-76
2021/11/01 03:19:03;;;;;;;;;;;179.70;2252.80;;;;;;5136820;27;19914;-77
2021/11/01 03:21:29;;;;;;;;;;;179.80;2252.80;;;;;;5107265;28;19907;-78
2021/11/01 03:23:55;;;;;;;;;;;179.80;2252.80;;;;;;5117016;27;19997;-77
2021/11/01 03:26:23;;;;;;;;;;;179.40;2252.80;;;;;;5117469;27;20360;-76
2021/11/01 03:28:50;;;;;;;;;;;179.70;2252.80;;;;;;5129431;27;19934;-77
2021/11/01 03:31:17;;;;;;;;;;;179.60;2252.80;;;;;;5131971;27;19918;-78
2021/11/01 03:33:43;;;;;;;;;;;179.60;2252.80;;;;;;5131966;27;20425;-76
2021/11/01 03:36:10;;;;;;;;;;;179.60;2252.80;;;;;;5132144;27;19904;-77
2021/11/01 03:38:37;;;;;;;;;;;179.50;2252.80;;;;;;5134042;27;19903;-75
2021/11/01 03:41:08;;;;;;;;;;;179.40;2252.80;;;;;;5112823;28;20322;-77
2021/11/01 03:43:41;;;;;;;;;;;179.40;2252.80;;;;;;5134491;27;20257;-77
2021/11/01 03:46:08;;;;;;;;;;;179.40;2252.80;;;;;;5133720;27;19904;-76
2021/11/01 03:48:37;;;;;;;;;;;179.40;2252.80;;;;;;5136090;27;19950;-77
2021/11/01 03:51:10;;;;;;;;;;;179.30;2252.80;;;;;;5131188;27;19966;-76
2021/11/01 03:53:36;;;;;;;;;;;179.30;2252.80;;;;;;5127475;27;20297;-78
2021/11/01 03:56:02;;;;;;;;;;;179.40;2252.80;;;;;;5124134;27;19903;-76
2021/11/01 03:58:27;;;;;;;;;;;179.50;2252.80;;;;;;5108854;27;20421;-77
2021/11/01 04:00:54;;;;;;;;;;;179.30;2252.80;;;;;;5128941;27;19907;-76
2021/11/01 04:03:24;;;;;;;;;;;179.40;2252.80;;;;;;5131631;27;19903;-76
2021/11/01 04:05:53;;;;;;;;;;;179.40;2252.80;;;;;;5115033;27;19907;-77
2021/11/01 04:08:19;;;;;;;;;;;179.40;2252.80;;;;;;5117302;27;19935;-76
2021/11/01 04:10:44;;;;;;;;;;;179.50;2252.80;;;;;;5135278;27;19996;-77
2021/11/01 04:13:10;;;;;;;;;;;179.50;2252.80;;;;;;5135503;27;19919;-78
2021/11/01 04:15:42;;;;;;;;;;;179.60;2252.80;;;;;;5125178;27;19990;-77
2021/11/01 04:18:08;;;;;;;;;;;179.60;2252.80;;;;;;5117219;27;19911;-77
2021/11/01 04:23:15;;;;;;;;;;;179.70;2252.80;;;;;;5128109;27;20276;-76
2021/11/01 04:25:41;;;;;;;;;;;179.60;2252.80;;;;;;5105625;27;19965;-77
2021/11/01 04:28:06;;;;;;;;;;;179.60;2252.80;;;;;;5132369;27;20344;-75
2021/11/01 04:30:40;;;;;;;;;;;179.60;2252.80;;;;;;5135041;27;19911;-74
2021/11/01 04:33:08;;;;;;;;;;;179.70;2252.80;;;;;;5104055;28;20066;-75
2021/11/01 04:35:38;;;;;;;;;;;179.70;2252.80;;;;;;5114638;27;19909;-74
2021/11/01 04:53:57;;;;;;;;;;;179.90;2252.80;;;;;;5014654;28;20371;-75
2021/11/01 04:56:25;;;;;;;;;;;180.00;2252.80;;;;;;5019654;28;19913;-75
2021/11/01 04:58:52;;;;;;;;;;;180.00;2252.80;;;;;;5022080;28;19905;-75
2021/11/01 05:01:57;;;;;;;;;;;180.00;2252.80;;;;;;5021970;28;19905;-75
2021/11/01 05:04:17;;;;;;;;;;;180.00;2252.80;;;;;;5019271;28;19916;-74
2021/11/01 05:06:50;;;;;;;;;;;180.00;2252.80;;;;;;5022614;28;20149;-75
2021/11/01 05:09:24;;;;;;;;;;;180.10;2252.80;;;;;;5005019;28;20358;-78
2021/11/01 05:14:16;;;;;;;;;;;179.90;2252.80;;;;;;5021256;28;19909;-75
2021/11/01 05:19:38;;;;;;;;;;;179.70;2252.80;;;;;;4981152;28;20000;-75
2021/11/01 05:24:55;;;;;;;;;;;179.70;2252.80;;;;;;5083776;27;19909;-75
2021/11/01 05:27:39;;;;;;;;;;;179.80;2252.80;;;;;;5126371;27;19910;-77
2021/11/01 05:30:08;;;;;;;;;;;179.70;2252.80;;;;;;5130851;27;19919;-77
2021/11/01 05:32:34;;;;;;;;;;;179.70;2252.80;;;;;;5132405;27;19903;-77
2021/11/01 05:35:00;;;;;;;;;;;179.70;2252.80;;;;;;5102053;27;19903;-75
2021/11/01 05:37:26;;;;;;;;;;;179.80;2252.80;;;;;;5114692;27;19903;-75
2021/11/01 05:39:51;;;;;;;;;;;179.80;2252.80;;;;;;5110902;28;19907;-76
2021/11/01 05:42:17;;;;;;;;;;;179.80;2252.80;;;;;;5106270;28;19918;-77
2021/11/01 05:44:43;;;;;;;;;;;179.70;2252.80;;;;;;5113421;28;19930;-76
2021/11/01 05:47:09;;;;;;;;;;;179.70;2252.80;;;;;;5131834;27;20265;-74
2021/11/01 05:49:38;;;;;;;;;;;179.80;2252.80;;;;;;5133517;28;19943;-75
2021/11/01 05:52:06;;;;;;;;;;;179.80;2252.80;;;;;;5133477;28;19918;-76
2021/11/01 05:54:32;;;;;;;;;;;179.90;2252.80;;;;;;5109834;28;19903;-75
2021/11/01 05:57:20;;;;;;;;;;;180.00;2252.80;;;;;;5133488;28;19907;-77
2021/11/01 06:00:03;;;;;;;;;;;180.00;2252.80;;;;;;5133090;28;19904;-75
2021/11/01 06:02:48;;;;;;;;;;;180.10;2252.80;;;;;;5114373;28;19919;-74
2021/11/01 06:05:40;;;;;;;;;;;204.90;2252.80;;;;;;5130887;27;19904;-75
2021/11/01 06:15:54;;;;;;;;;;;205.50;2252.80;;;;;;5110613;28;20443;-75
2021/11/01 06:18:21;;;;;;;;;;;205.60;2252.80;;;;;;5094807;28;19973;-75
2021/11/01 06:20:47;;;;;;;;;;;205.70;2252.80;;;;;;5094625;28;19966;-75
2021/11/01 06:23:13;;;;;;;;;;;230.40;2252.80;;;;;;5112952;28;19904;-74
2021/11/01 06:25:39;;;;;;;;;;;230.50;2252.80;;;;;;5112752;28;20412;-74
2021/11/01 06:28:09;;;;;;;;;;;230.50;2252.80;;;;;;5112930;28;19904;-75
2021/11/01 06:30:40;;;;;;;;;;;230.60;2252.80;;;;;;5110587;28;19911;-75
2021/11/01 06:33:49;;;;;;;;;;;230.60;2252.80;;;;;;5112436;28;19916;-76
2021/11/01 06:42:18;;;;;;;;;;;230.70;2252.80;;;;;;5115297;28;19935;-74
2021/11/01 06:49:57;;;;;;;;;;;230.90;2252.80;;;;;;5116789;28;19911;-75
2021/11/01 06:57:52;;;;;;;;;;;231.10;2252.80;;;;;;5116701;28;19911;-75
2021/11/01 07:14:16;;;;;;;;;;;256.20;2252.80;;;;;;5115556;28;19918;-75
2021/11/01 08:38:18;;;;;;;;;;;332.90;2329.60;;;;;;5114257;28;19914;-74
2021/11/01 09:01:21;;;;;;;;;;;333.40;2329.60;;;;;;5115083;28;19949;-74
2021/11/01 09:20:15;;;;;;;;;;;358.70;2329.60;;;;;;5135192;27;20036;-75
2021/11/01 09:28:03;;;;;;;;;;;358.90;2329.60;;;;;;5132308;27;19911;-78
2021/11/01 09:36:04;;;;;;;;;;;359.20;2329.60;;;;;;5134931;27;20312;-79
2021/11/01 09:38:52;;;;;;;;;;;359.20;2329.60;;;;;;5133363;27;19949;-76
2021/11/01 09:41:15;;;;;;;;;;;359.30;2329.60;;;;;;5130243;27;19950;-75
2021/11/01 09:43:42;;;;;;;;;;;384.10;2329.60;;;;;;5131644;27;19954;-83
2021/11/01 09:46:10;;;;;;;;;;;384.10;2329.60;;;;;;5109112;28;19965;-75
2021/11/01 09:48:39;;;;;;;;;;;384.20;2329.60;;;;;;5122955;28;19903;-78
2021/11/01 09:51:06;;;;;;;;;;;384.20;2329.60;;;;;;5133407;27;19922;-77
2021/11/01 09:53:44;;;;;;;;;;;384.30;2329.60;;;;;;5133896;27;19956;-77
2021/11/01 09:56:29;;;;;;;;;;;384.60;2329.60;;;;;;5113378;28;19915;-75
2021/11/01 09:59:13;;;;;;;;;;;384.70;2329.60;;;;;;5120244;28;19908;-74
2021/11/01 10:01:40;;;;;;;;;;;384.70;2329.60;;;;;;5112333;28;19907;-76
2021/11/01 10:04:16;;;;;;;;;;;384.70;2329.60;;;;;;5111070;28;19903;-75
2021/11/01 10:06:42;;;;;;;;;;;384.90;2329.60;;;;;;5113077;28;20260;-75
2021/11/01 10:09:12;;;;;;;;;;;384.90;2329.60;;;;;;5114994;28;19904;-75
2021/11/01 10:11:39;;;;;;;;;;;384.90;2329.60;;;;;;5115305;27;20002;-77
2021/11/01 10:14:07;;;;;;;;;;;409.60;2355.20;;;;;;5118600;27;19934;-76
2021/11/01 10:19:26;;;;;;;;;;;409.80;2355.20;;;;;;5137433;27;20397;-75
2021/11/01 10:21:53;;;;;;;;;;;410.10;2329.60;;;;;;5114990;27;20406;-77
2021/11/01 10:24:23;;;;;;;;;;;410.30;2278.40;;;;;;5111831;27;19910;-75
2021/11/01 10:26:49;;;;;;;;;;;410.20;2252.80;;;;;;5137453;27;20238;-76
2021/11/01 10:29:15;;;;;;;;;;;410.20;2252.80;;;;;;5118500;27;19986;-75
2021/11/01 10:31:45;;;;;;;;;;;410.40;2252.80;;;;;;5137298;27;20025;-75
2021/11/01 10:34:12;;;;;;;;;;;435.20;2227.20;;;;;;5137269;27;19993;-77
2021/11/01 10:36:40;;;;;;;;;;;435.30;2227.20;;;;;;5136716;27;19903;-76
2021/11/01 10:39:10;;;;;;;;;;;435.60;2176.00;;;;;;5133943;27;20340;-75
2021/11/01 10:41:44;;;;;;;;;;;435.50;2150.40;;;;;;5134464;27;19907;-75
2021/11/01 10:44:41;;;;;;;;;;;435.60;2124.80;;;;;;5133714;27;20285;-75
2021/11/01 11:15:06;;;;;;;;;;;461.10;2048.00;;;;;;5021885;28;20011;-75
2021/11/01 11:46:56;;;;;;;;;;;461.10;1920.00;;;;;;5104446;28;20002;-78
2021/11/01 11:49:27;;;;;;;;;;;461.60;1894.40;;;;;;5111507;28;20388;-76
2021/11/01 11:52:00;;;;;;;;;;;461.50;1894.40;;;;;;5109387;28;20268;-78
2021/11/01 11:54:30;;;;;;;;;;;486.40;1843.20;;;;;;5109619;28;19950;-75
2021/11/01 11:56:57;;;;;;;;;;;486.50;1843.20;;;;;;5114028;28;20362;-76
2021/11/01 11:59:31;;;;;;;;;;;486.40;1817.60;;;;;;5111474;28;19903;-79
2021/11/01 12:01:57;;;;;;;;;;;461.60;1843.20;;;;;;5106005;28;19904;-78
2021/11/01 12:04:32;;;;;;;;;;;461.60;1868.80;;;;;;5106482;28;19949;-75
2021/11/01 12:07:00;;;;;;;;;;;461.60;1843.20;;;;;;5104068;28;19967;-75
2021/11/01 12:09:35;;;;;;;;;;;461.70;1843.20;;;;;;5102038;28;19915;-77
2021/11/01 12:17:02;;;;;;;;;;;486.40;1843.20;;;;;;5111322;28;19923;-78
2021/11/01 12:17:21;;;;;;;;;;;486.40;1868.80;;;;;;5113230;28;20110;-79
2021/11/01 12:19:46;;;;;;;;;;;486.40;1843.20;;;;;;5114302;28;20368;-77
2021/11/01 12:22:22;;;;;;;;;;;461.70;1868.80;;;;;;5113278;28;20257;-75
2021/11/01 12:24:51;;;;;;;;;;;486.40;1843.20;;;;;;5094117;28;19915;-77
2021/11/01 12:27:18;;;;;;;;;;;486.40;1843.20;;;;;;5094870;28;20002;-76
2021/11/01 12:29:44;;;;;;;;;;;461.70;1817.60;;;;;;5112922;28;19911;-75
2021/11/01 12:32:12;;;;;;;;;;;486.40;1843.20;;;;;;5094545;28;19915;-75
2021/11/01 12:34:46;;;;;;;;;;;461.70;1843.20;;;;;;5112914;28;19908;-74
2021/11/01 12:37:16;;;;;;;;;;;486.40;1817.60;;;;;;5111994;28;19991;-74
2021/11/01 12:39:46;;;;;;;;;;;461.70;1817.60;;;;;;5112774;28;19910;-74
2021/11/01 12:58:24;;;;;;;;;;;461.70;1817.60;;;;;;5110723;28;19910;-79
2021/11/01 13:00:49;;;;;;;;;;;461.60;1792.00;;;;;;5111868;28;19911;-77
2021/11/01 13:03:17;;;;;;;;;;;461.60;1817.60;;;;;;5112604;28;19908;-78
2021/11/01 13:05:51;;;;;;;;;;;461.60;1843.20;;;;;;5112247;28;19922;-76
2021/11/01 13:08:22;;;;;;;;;;;461.60;1817.60;;;;;;5112555;28;19912;-74
2021/11/01 13:10:56;;;;;;;;;;;461.50;1817.60;;;;;;5112085;28;19916;-77
2021/11/01 13:18:36;;;;;;;;;;;461.50;1817.60;;;;;;5118700;27;19918;-75
2021/11/01 13:21:16;;;;;;;;;;;461.50;1817.60;;;;;;5102538;28;19958;-74
2021/11/01 13:23:54;;;;;;;;;;;461.60;1817.60;;;;;;5122704;27;20352;-74
2021/11/01 13:27:15;;;;;;;;;;;461.50;1817.60;;;;;;5122145;27;19912;-74
2021/11/01 13:38:01;;;;;;;;;;;461.30;1817.60;;;;;;5049142;28;19974;-75
2021/11/01 13:40:32;;;;;;;;;;;461.20;1792.00;;;;;;5045726;28;19905;-78
2021/11/01 13:42:58;;;;;;;;;;;461.20;1792.00;;;;;;5045329;28;20421;-74
2021/11/01 13:45:24;;;;;;;;;;;461.20;1817.60;;;;;;5041506;28;19967;-74
2021/11/01 13:47:52;;;;;;;;;;;461.20;1817.60;;;;;;5041581;28;19923;-75
2021/11/01 13:50:19;;;;;;;;;;;461.20;1817.60;;;;;;5038568;28;19916;-77
2021/11/01 13:53:00;;;;;;;;;;;461.20;1817.60;;;;;;5050195;28;20376;-74
2021/11/01 14:00:47;;;;;;;;;;;461.10;1792.00;;;;;;5043945;28;19995;-74
2021/11/01 14:03:27;;;;;;;;;;;461.10;1792.00;;;;;;5043919;28;19940;-74
2021/11/01 14:11:41;;;;;;;;;;;461.10;1766.40;;;;;;5045393;28;19928;-75
2021/11/01 14:14:17;;;;;;;;;;;461.00;1792.00;;;;;;5079273;28;20353;-74
2021/11/01 14:17:02;;;;;;;;;;;460.90;1817.60;;;;;;5112180;28;19956;-79
2021/11/01 14:20:05;;;;;;;;;;;460.90;1792.00;;;;;;5111961;28;19923;-76
2021/11/01 14:31:16;;;;;;;;;;;460.80;1817.60;;;;;;5112876;28;19962;-74
2021/11/01 14:36:35;;;;;;;;;;;436.10;1766.40;;;;;;5112592;28;19911;-75
2021/11/01 15:08:27;;;;;;;;;;;435.40;1868.80;;;;;;5117913;27;20336;-74
2021/11/01 15:38:29;;;;;;;;;;;409.60;2227.20;;;;;;4964091;28;19906;-79
2021/11/01 15:41:42;;;;;;;;;;;384.90;2201.60;;;;;;4953577;29;19914;-75
2021/11/01 16:19:33;;;;;;;;;;;358.90;2329.60;;;;;;4967489;28;19960;-75
2021/11/01 16:21:59;;;;;;;;;;;358.80;2329.60;;;;;;4964169;28;19907;-75
2021/11/01 16:24:26;;;;;;;;;;;358.80;2329.60;;;;;;4969059;28;19918;-74
2021/11/01 16:26:52;;;;;;;;;;;358.80;2329.60;;;;;;4967887;28;19906;-75
2021/11/01 16:29:20;;;;;;;;;;;358.80;2329.60;;;;;;4962788;28;19914;-76
2021/11/01 16:31:57;;;;;;;;;;;358.80;2329.60;;;;;;4926982;28;1312373;-76
2021/11/01 16:34:29;;;;;;;;;;;358.80;2329.60;;;;;;4972505;28;19946;-81
2021/11/01 16:39:23;;;;;;;;;;;358.70;2329.60;;;;;;4964965;28;19910;-76
2021/11/01 16:41:50;;;;;;;;;;;358.60;2329.60;;;;;;4965820;28;19921;-76
2021/11/01 16:44:20;;;;;;;;;;;358.50;2329.60;;;;;;4971495;28;20356;-75
2021/11/01 16:46:47;;;;;;;;;;;358.40;2329.60;;;;;;4971127;28;19910;-77
2021/11/01 16:49:13;;;;;;;;;;;358.40;2329.60;;;;;;4970280;28;19914;-82
2021/11/01 16:51:40;;;;;;;;;;;333.70;2329.60;;;;;;4953190;28;20294;-74
2021/11/01 16:54:08;;;;;;;;;;;333.60;2329.60;;;;;;4969045;28;20372;-75
2021/11/01 16:59:26;;;;;;;;;;;333.20;2329.60;;;;;;4972551;28;19948;-74
2021/11/01 17:01:56;;;;;;;;;;;333.00;2329.60;;;;;;4971538;28;19964;-73
2021/11/01 17:04:22;;;;;;;;;;;332.80;2329.60;;;;;;4953602;28;19910;-76
2021/11/01 17:07:02;;;;;;;;;;;332.80;2329.60;;;;;;4970766;28;19921;-75
2021/11/01 17:10:08;;;;;;;;;;;332.80;2329.60;;;;;;4969720;28;19910;-73
2021/11/01 17:26:30;;;;;;;;;;;307.40;2304.00;;;;;;4932788;29;20038;-76
2021/11/01 18:40:23;;;;;;;;;;;281.70;2278.40;;;;;;4971666;28;19950;-75
2021/11/01 18:53:33;;;;;;;;;;;256.90;2252.80;;;;;;4976319;28;19925;-74
2021/11/01 18:56:00;;;;;;;;;;;281.60;2278.40;;;;;;4975392;28;20008;-74
2021/11/01 18:58:26;;;;;;;;;;;281.70;2278.40;;;;;;4975872;28;19910;-78
2021/11/01 19:00:53;;;;;;;;;;;281.60;2278.40;;;;;;4974568;28;19954;-74
2021/11/01 19:03:21;;;;;;;;;;;256.90;2252.80;;;;;;4975781;28;19910;-74
2021/11/01 19:09:12;;;;;;;;;;;256.90;2252.80;;;;;;4935367;29;20007;-74
2021/11/01 19:15:18;;;;;;;;;;;256.90;2252.80;;;;;;4934838;29;20308;-73
2021/11/01 21:25:51;;;;;;;;;;;307.30;2304.00;;;;;;4974110;28;19965;-73
2021/11/01 21:28:16;;;;;;;;;;;307.40;2304.00;;;;;;4962737;28;19920;-76
2021/11/01 21:30:42;;;;;;;;;;;307.30;2304.00;;;;;;4964363;28;19922;-74
2021/11/01 21:33:09;;;;;;;;;;;307.30;2304.00;;;;;;4965046;28;19914;-78
2021/11/01 21:35:42;;;;;;;;;;;307.30;2304.00;;;;;;4966481;28;20338;-73
2021/11/01 21:38:07;;;;;;;;;;;307.20;2304.00;;;;;;4958104;28;20320;-72
2021/11/01 21:40:33;;;;;;;;;;;282.50;2278.40;;;;;;4961292;28;19913;-75
2021/11/01 21:42:59;;;;;;;;;;;307.20;2304.00;;;;;;4963466;28;19906;-74
2021/11/01 21:45:24;;;;;;;;;;;307.20;2304.00;;;;;;4959463;28;19906;-74
2021/11/01 21:47:50;;;;;;;;;;;282.50;2278.40;;;;;;4955031;28;19914;-74
2021/11/01 21:50:16;;;;;;;;;;;282.50;2278.40;;;;;;4973913;28;20622;-74
2021/11/01 21:52:43;;;;;;;;;;;282.50;2278.40;;;;;;4972433;28;19906;-73
2021/11/01 21:55:09;;;;;;;;;;;282.50;2278.40;;;;;;4972170;28;20284;-73
2021/11/01 21:57:43;;;;;;;;;;;282.50;2278.40;;;;;;4973275;28;19914;-74
2021/11/01 22:24:13;;;;;;;;;;;282.30;2278.40;;;;;;4922466;29;19954;-73
2021/11/01 22:38:16;;;;;;;;;;;282.30;2278.40;;;;;;4917085;29;19906;-73
2021/11/01 22:40:36;;;;;;;;;;;282.20;2278.40;;;;;;4908204;29;19958;-71
2021/11/01 22:45:37;;;;;;;;;;;282.20;2278.40;;;;;;4932829;29;19910;-73
2021/11/01 22:58:27;;;;;;;;;;;282.30;2278.40;;;;;;4938418;29;19918;-72
2021/11/01 23:01:07;;;;;;;;;;;282.30;2278.40;;;;;;4953635;29;19935;-73
2021/11/01 23:33:28;;;;;;;;;;;282.00;2278.40;;;;;;4973786;28;20382;-77
2021/11/01 23:35:55;;;;;;;;;;;281.70;2278.40;;;;;;4975256;28;19997;-72
2021/11/01 23:38:21;;;;;;;;;;;281.90;2278.40;;;;;;4975553;28;19989;-72
2021/11/01 23:40:47;;;;;;;;;;;281.90;2278.40;;;;;;4975570;28;20044;-72
2021/11/01 23:43:13;;;;;;;;;;;281.90;2278.40;;;;;;4975551;28;19913;-72
2021/11/01 23:45:43;;;;;;;;;;;281.90;2278.40;;;;;;4973874;28;20287;-72
2021/11/01 23:48:09;;;;;;;;;;;281.80;2278.40;;;;;;4975032;28;20021;-76
2021/11/01 23:50:34;;;;;;;;;;;281.70;2278.40;;;;;;4975097;28;20271;-71
2021/11/01 23:54:22;;;;;;;;;;;281.70;2278.40;;;;;;4974829;28;19914;-73
2021/11/01 23:55:56;;;;;;;;;;;281.60;2278.40;;;;;;4970208;28;19906;-72
2021/11/01 23:58:21;;;;;;;;;;;281.60;2278.40;;;;;;4974999;28;19906;-72
